createdAt,value
2023-03-26T00:01:46.632Z,9.17
2023-03-26T00:06:56.007Z,9.09
2023-03-26T00:12:00.031Z,9.02
2023-03-26T00:17:04.468Z,8.77
2023-03-26T00:22:13.010Z,8.65
2023-03-26T00:27:17.593Z,8.74
2023-03-26T00:32:21.487Z,8.89
2023-03-26T00:37:28.146Z,8.96
2023-03-26T00:42:32.709Z,8.98
2023-03-26T00:47:37.617Z,8.80
2023-03-26T00:52:44.466Z,8.78
2023-03-26T00:57:48.419Z,8.86
2023-03-26T01:08:30.957Z,8.58
2023-03-26T01:13:41.534Z,8.54
2023-03-26T01:18:45.862Z,8.37
2023-03-26T01:24:02.621Z,8.35
2023-03-26T01:29:09.513Z,8.50
2023-03-26T01:34:18.809Z,8.38
2023-03-26T01:39:30.959Z,8.27
2023-03-26T01:44:40.362Z,8.20
2023-03-26T01:49:44.267Z,8.12
2023-03-26T01:54:50.376Z,8.19
2023-03-26T02:00:16.417Z,8.26
2023-03-26T02:05:26.241Z,8.30
2023-03-26T02:10:33.395Z,8.18
2023-03-26T02:15:37.482Z,8.18
2023-03-26T02:20:42.842Z,8.19
2023-03-26T02:25:49.513Z,8.03
2023-03-26T02:30:57.733Z,7.98
2023-03-26T02:36:02.728Z,7.98
2023-03-26T02:41:08.632Z,7.80
2023-03-26T02:46:27.562Z,7.85
2023-03-26T02:51:48.300Z,7.71
2023-03-26T02:57:04.742Z,7.65
2023-03-26T03:02:14.797Z,7.55
2023-03-26T03:07:20.418Z,7.59
2023-03-26T03:12:25.793Z,7.67
2023-03-26T03:17:30.503Z,7.64
2023-03-26T03:22:34.670Z,7.53
2023-03-26T03:27:40.172Z,7.57
2023-03-26T03:32:48.725Z,7.21
2023-03-26T03:37:58.406Z,7.20
2023-03-26T03:43:04.430Z,7.09
2023-03-26T03:48:19.394Z,7.08
2023-03-26T03:53:27.242Z,7.14
2023-03-26T03:58:38.216Z,7.10
2023-03-26T04:03:49.380Z,6.95
2023-03-26T04:08:59.045Z,6.65
2023-03-26T04:14:05.139Z,6.32
2023-03-26T04:19:38.530Z,6.04
2023-03-26T04:24:45.337Z,5.95
2023-03-26T04:30:29.284Z,5.93
2023-03-26T04:36:01.545Z,6.03
2023-03-26T04:41:08.275Z,6.10
2023-03-26T04:46:36.793Z,6.29
2023-03-26T04:51:50.877Z,6.35
2023-03-26T04:57:25.124Z,6.42
2023-03-26T05:02:41.883Z,6.34
2023-03-26T05:07:46.344Z,6.34
2023-03-26T05:12:53.646Z,6.36
2023-03-26T05:18:05.600Z,6.33
2023-03-26T05:23:18.532Z,6.38
2023-03-26T05:28:29.207Z,6.60
2023-03-26T05:33:43.431Z,6.60
2023-03-26T05:38:52.325Z,6.55
2023-03-26T05:44:14.808Z,6.74
2023-03-26T05:49:21.767Z,6.82
2023-03-26T05:54:25.912Z,7.36
2023-03-26T05:59:45.117Z,7.52
2023-03-26T06:05:10.279Z,7.95
2023-03-26T06:10:30.844Z,8.13
2023-03-26T06:15:36.352Z,8.92
2023-03-26T06:20:51.191Z,9.30
2023-03-26T06:26:06.591Z,9.19
2023-03-26T06:31:46.211Z,9.95
2023-03-26T06:37:04.270Z,9.92
2023-03-26T06:42:09.329Z,10.51
2023-03-26T06:47:28.180Z,10.65
2023-03-26T06:52:54.815Z,10.70
2023-03-26T06:58:27.400Z,11.24
2023-03-26T07:03:49.911Z,12.03
2023-03-26T07:09:17.806Z,11.97
2023-03-26T07:14:40.143Z,12.17
2023-03-26T07:20:01.495Z,11.57
2023-03-26T07:25:10.514Z,12.18
2023-03-26T07:30:43.358Z,12.37
2023-03-26T07:36:09.939Z,12.70
2023-03-26T07:41:36.901Z,13.04
2023-03-26T07:47:11.161Z,12.56
2023-03-26T07:52:35.753Z,12.59
2023-03-26T07:57:50.459Z,13.88
2023-03-26T08:03:32.807Z,14.33
2023-03-26T08:08:45.917Z,14.00
2023-03-26T08:14:24.668Z,13.89
2023-03-26T08:19:52.177Z,13.24
2023-03-26T08:30:41.863Z,14.73
2023-03-26T08:35:46.970Z,14.47
2023-03-26T08:41:36.703Z,15.98
2023-03-26T08:47:20.556Z,16.73
2023-03-26T08:52:57.596Z,16.73
2023-03-26T08:58:11.543Z,17.68
2023-03-26T09:03:48.467Z,17.62
2023-03-26T09:09:24.963Z,17.45
2023-03-26T09:15:07.449Z,17.38
2023-03-26T09:20:48.378Z,18.66
2023-03-26T09:26:12.086Z,14.24
2023-03-26T09:31:46.639Z,14.06
2023-03-26T09:36:57.428Z,14.78
2023-03-26T09:42:19.617Z,15.85
2023-03-26T09:47:44.622Z,15.48
2023-03-26T09:53:09.649Z,16.36
2023-03-26T09:59:01.128Z,16.46
2023-03-26T10:04:41.738Z,16.16
2023-03-26T10:09:54.817Z,16.24
2023-03-26T10:15:10.865Z,16.01
2023-03-26T10:20:30.393Z,17.28
2023-03-26T10:25:45.414Z,16.58
2023-03-26T10:31:01.346Z,16.76
2023-03-26T10:36:29.824Z,17.38
2023-03-26T10:41:45.037Z,16.82
2023-03-26T10:47:12.796Z,18.65
2023-03-26T10:52:20.944Z,18.35
2023-03-26T10:57:35.101Z,18.19
2023-03-26T11:02:51.200Z,19.43
2023-03-26T11:08:04.779Z,20.28
2023-03-26T11:13:18.916Z,19.34
2023-03-26T11:18:29.879Z,16.77
2023-03-26T11:23:38.252Z,17.70
2023-03-26T11:29:31.910Z,17.62
2023-03-26T11:34:41.629Z,18.03
2023-03-26T11:39:51.272Z,19.32
2023-03-26T11:44:58.354Z,17.29
2023-03-26T11:50:07.201Z,17.67
2023-03-26T11:55:12.915Z,18.10
2023-03-26T12:00:21.201Z,17.36
2023-03-26T12:05:33.500Z,18.58
2023-03-26T12:10:39.075Z,17.07
2023-03-26T12:15:48.321Z,17.26
2023-03-26T12:21:04.586Z,19.04
2023-03-26T12:26:20.795Z,18.78
2023-03-26T12:31:26.827Z,18.72
2023-03-26T12:36:34.109Z,17.12
2023-03-26T12:44:44.084Z,18.02
2023-03-26T12:47:56.987Z,17.55
2023-03-26T12:52:55.178Z,19.33
2023-03-26T12:58:13.687Z,18.24
2023-03-26T13:03:39.002Z,20.19
2023-03-26T13:09:13.210Z,19.68
2023-03-26T13:14:40.690Z,20.81
2023-03-26T13:19:50.849Z,17.95
2023-03-26T13:25:04.123Z,17.98
2023-03-26T13:30:24.270Z,18.63
2023-03-26T13:35:33.424Z,17.88
2023-03-26T13:40:54.987Z,17.30
2023-03-26T13:46:08.722Z,18.00
2023-03-26T13:51:17.245Z,16.20
2023-03-26T13:56:29.399Z,16.52
2023-03-26T14:01:41.372Z,17.36
2023-03-26T14:06:54.097Z,18.38
2023-03-26T14:12:22.059Z,17.19
2023-03-26T14:17:32.273Z,16.02
2023-03-26T14:22:47.509Z,15.31
2023-03-26T14:28:17.148Z,14.96
2023-03-26T14:33:45.918Z,14.80
2023-03-26T14:39:19.815Z,14.49
2023-03-26T14:44:49.154Z,15.24
2023-03-26T14:50:38.950Z,15.34
2023-03-26T14:56:10.744Z,15.23
2023-03-26T15:01:26.890Z,15.60
2023-03-26T15:07:11.160Z,15.50
2023-03-26T15:12:28.618Z,15.34
2023-03-26T15:18:06.299Z,15.69
2023-03-26T15:23:39.859Z,15.99
2023-03-26T15:29:31.347Z,15.63
2023-03-26T15:35:15.709Z,15.24
2023-03-26T15:40:38.122Z,14.21
2023-03-26T15:45:47.573Z,14.32
2023-03-26T15:50:59.970Z,14.85
2023-03-26T15:56:22.067Z,15.61
2023-03-26T16:01:46.228Z,13.52
2023-03-26T16:07:02.966Z,12.83
2023-03-26T16:12:35.334Z,12.51
2023-03-26T16:18:22.774Z,12.35
2023-03-26T16:23:31.183Z,11.88
2023-03-26T16:28:36.765Z,11.35
2023-03-26T16:33:49.174Z,11.06
2023-03-26T16:39:18.081Z,10.82
2023-03-26T16:44:29.100Z,10.58
2023-03-26T16:49:46.295Z,10.49
2023-03-26T16:54:58.945Z,10.35
2023-03-26T17:00:28.545Z,10.22
2023-03-26T17:05:38.030Z,9.97
2023-03-26T17:10:57.551Z,10.12
2023-03-26T17:16:10.956Z,10.06
2023-03-26T17:21:18.871Z,9.96
2023-03-26T17:26:28.463Z,10.02
2023-03-26T17:31:44.177Z,9.75
2023-03-26T17:36:57.352Z,9.42
2023-03-26T17:42:27.272Z,9.26
2023-03-26T17:47:36.018Z,9.11
2023-03-26T17:52:54.893Z,9.30
2023-03-26T17:58:02.688Z,9.57
2023-03-26T18:03:15.664Z,10.03
2023-03-26T18:08:47.121Z,10.32
2023-03-26T18:14:25.101Z,10.45
2023-03-26T18:19:32.206Z,10.29
2023-03-26T18:24:40.005Z,10.13
2023-03-26T18:29:47.355Z,10.00
2023-03-26T18:34:58.327Z,9.58
2023-03-26T18:40:11.359Z,9.48
2023-03-26T18:45:26.461Z,9.84
2023-03-26T18:50:36.322Z,9.97
2023-03-26T18:55:41.320Z,9.79
2023-03-26T19:00:46.935Z,9.43
2023-03-26T19:05:55.371Z,9.05
2023-03-26T19:11:02.265Z,8.77
2023-03-26T19:16:14.002Z,8.57
2023-03-26T19:21:20.192Z,8.32
2023-03-26T19:26:27.337Z,8.20
2023-03-26T19:31:36.720Z,8.03
2023-03-26T19:36:59.299Z,7.98
2023-03-26T19:42:06.465Z,7.91
2023-03-26T19:47:19.408Z,7.89
2023-03-26T19:52:26.136Z,7.69
2023-03-26T19:57:32.019Z,7.70
2023-03-26T20:02:37.532Z,7.76
2023-03-26T20:07:41.507Z,7.68
2023-03-26T20:12:49.698Z,7.49
2023-03-26T20:17:55.705Z,7.39
2023-03-26T20:22:59.701Z,7.54
2023-03-26T20:28:05.934Z,7.50
2023-03-26T20:33:22.418Z,7.28
2023-03-26T20:38:39.144Z,7.32
2023-03-26T20:43:43.924Z,7.21
2023-03-26T20:48:49.836Z,7.17
2023-03-26T20:53:53.999Z,6.94
2023-03-26T21:04:07.612Z,6.71
2023-03-26T21:09:17.786Z,6.67
2023-03-26T21:14:25.795Z,6.84
2023-03-26T21:19:31.867Z,6.92
2023-03-26T21:24:59.908Z,7.04
2023-03-26T21:30:09.426Z,7.04
2023-03-26T21:35:16.929Z,7.01
2023-03-26T21:40:21.715Z,7.01
2023-03-26T21:45:26.826Z,7.06
2023-03-26T21:50:32.984Z,7.03
2023-03-26T21:55:42.419Z,6.93
2023-03-26T22:01:00.141Z,6.85
2023-03-26T22:06:08.400Z,6.70
2023-03-26T22:11:13.333Z,6.65
2023-03-26T22:16:17.656Z,6.61
2023-03-26T22:21:23.661Z,6.57
2023-03-26T22:26:27.663Z,6.50
2023-03-26T22:31:31.596Z,6.51
2023-03-26T22:36:38.418Z,6.57
2023-03-26T22:41:50.573Z,6.52
2023-03-26T22:46:54.664Z,6.43
2023-03-26T22:51:59.986Z,6.41
2023-03-26T22:57:04.134Z,6.36
2023-03-26T23:02:10.023Z,6.36
2023-03-26T23:07:15.791Z,6.45
2023-03-26T23:12:19.938Z,6.41
2023-03-26T23:17:24.042Z,6.44
2023-03-26T23:22:29.801Z,6.40
2023-03-26T23:27:34.136Z,6.50
2023-03-26T23:32:39.578Z,6.48
2023-03-26T23:37:44.939Z,6.38
2023-03-26T23:42:49.682Z,6.43
2023-03-26T23:47:53.614Z,6.40
2023-03-26T23:53:00.126Z,6.28
2023-03-26T23:58:04.426Z,6.28
